createdAt,value
2023-01-07T00:01:08.347Z,97347.88
2023-01-07T00:03:35.535Z,97345.41
2023-01-07T00:06:04.167Z,97347.13
2023-01-07T00:08:32.223Z,97342.97
2023-01-07T00:11:06.927Z,97340.97
2023-01-07T00:13:34.804Z,97337.59
2023-01-07T00:16:07.541Z,97335.16
2023-01-07T00:18:35.328Z,97336.84
2023-01-07T00:21:06.100Z,97334.88
2023-01-07T00:23:34.370Z,97335.72
2023-01-07T00:26:13.021Z,97331.91
2023-01-07T00:28:41.964Z,97320.19
2023-01-07T00:31:11.582Z,97318.66
2023-01-07T00:34:02.289Z,97319.69
2023-01-07T00:36:40.987Z,97320.72
2023-01-07T00:39:11.949Z,97314.88
2023-01-07T00:41:38.604Z,97306.50
2023-01-07T00:44:06.698Z,97313.72
2023-01-07T00:46:33.881Z,97307.53
2023-01-07T00:49:01.508Z,97306.03
2023-01-07T00:51:28.292Z,97307.19
2023-01-07T00:53:54.967Z,97303.09
2023-01-07T00:56:21.818Z,97299.63
2023-01-07T00:58:48.452Z,97298.88
2023-01-07T01:01:15.902Z,97300.84
2023-01-07T01:03:42.563Z,97298.03
2023-01-07T01:06:13.227Z,97298.63
2023-01-07T01:08:44.996Z,97303.94
2023-01-07T01:11:13.809Z,97298.44
2023-01-07T01:13:40.638Z,97291.31
2023-01-07T01:16:10.236Z,97283.78
2023-01-07T01:18:37.786Z,97286.59
2023-01-07T01:21:06.191Z,97286.41
2023-01-07T01:23:32.984Z,97289.03
2023-01-07T01:26:10.596Z,97281.31
2023-01-07T01:28:37.715Z,97281.94
2023-01-07T01:31:04.978Z,97278.06
2023-01-07T01:33:41.911Z,97274.31
2023-01-07T01:36:11.993Z,97271.13
2023-01-07T01:38:39.730Z,97270.50
2023-01-07T01:41:07.408Z,97265.34
2023-01-07T01:43:41.404Z,97264.59
2023-01-07T01:46:39.712Z,97262.06
2023-01-07T01:49:15.804Z,97267.81
2023-01-07T01:51:46.980Z,97271.72
2023-01-07T01:54:17.221Z,97265.63
2023-01-07T01:56:52.789Z,97271.19
2023-01-07T01:59:23.914Z,97271.38
2023-01-07T02:01:52.052Z,97259.22
2023-01-07T02:04:23.252Z,97256.25
2023-01-07T02:06:59.283Z,97265.81
2023-01-07T02:09:27.760Z,97260.00
2023-01-07T02:12:06.603Z,97260.66
2023-01-07T02:14:51.180Z,97259.91
2023-01-07T02:17:41.276Z,97264.63
2023-01-07T02:20:25.656Z,97256.75
2023-01-07T02:23:13.468Z,97252.75
2023-01-07T02:25:49.107Z,97252.94
2023-01-07T02:29:03.093Z,97246.50
2023-01-07T02:31:48.076Z,97253.50
2023-01-07T02:34:34.896Z,97253.84
2023-01-07T02:37:14.738Z,97250.53
2023-01-07T02:39:59.510Z,97247.59
2023-01-07T02:42:52.831Z,97243.63
2023-01-07T02:45:36.540Z,97236.69
2023-01-07T02:48:13.287Z,97249.94
2023-01-07T02:50:39.913Z,97245.47
2023-01-07T02:53:10.078Z,97242.44
2023-01-07T02:56:12.785Z,97234.88
2023-01-07T02:58:42.355Z,97236.00
2023-01-07T03:01:36.130Z,97230.34
2023-01-07T03:04:44.310Z,97232.66
2023-01-07T03:07:28.904Z,97220.13
2023-01-07T03:10:05.617Z,97225.97
2023-01-07T03:12:38.368Z,97219.53
2023-01-07T03:15:08.732Z,97217.69
2023-01-07T03:17:42.538Z,97216.66
2023-01-07T03:20:11.758Z,97211.31
2023-01-07T03:22:41.775Z,97208.88
2023-01-07T03:25:09.247Z,97213.00
2023-01-07T03:27:36.789Z,97211.72
2023-01-07T03:30:11.819Z,97212.84
2023-01-07T03:33:04.911Z,97205.03
2023-01-07T03:35:34.731Z,97207.03
2023-01-07T03:38:04.299Z,97210.75
2023-01-07T03:40:32.132Z,97203.81
2023-01-07T03:42:59.343Z,97204.50
2023-01-07T03:45:28.087Z,97206.88
2023-01-07T03:47:58.031Z,97206.47
2023-01-07T03:50:29.688Z,97201.91
2023-01-07T03:52:56.573Z,97194.66
2023-01-07T03:55:24.202Z,97196.34
2023-01-07T03:57:53.787Z,97191.84
2023-01-07T04:00:20.609Z,97187.97
2023-01-07T04:02:55.668Z,97184.41
2023-01-07T04:05:27.108Z,97187.78
2023-01-07T04:07:53.692Z,97181.03
2023-01-07T04:10:21.336Z,97181.78
2023-01-07T04:12:47.961Z,97180.59
2023-01-07T04:15:14.627Z,97178.84
2023-01-07T04:17:41.195Z,97170.69
2023-01-07T04:20:09.119Z,97166.13
2023-01-07T04:22:36.059Z,97165.78
2023-01-07T04:25:02.683Z,97164.84
2023-01-07T04:27:31.020Z,97165.78
2023-01-07T04:29:58.880Z,97155.19
2023-01-07T04:32:26.170Z,97156.63
2023-01-07T04:34:52.779Z,97149.69
2023-01-07T04:37:20.128Z,97146.88
2023-01-07T04:39:46.801Z,97142.75
2023-01-07T04:42:13.997Z,97131.50
2023-01-07T04:44:41.140Z,97135.47
2023-01-07T04:47:07.913Z,97127.53
2023-01-07T04:49:34.446Z,97121.34
2023-01-07T04:52:01.468Z,97124.97
2023-01-07T04:54:28.134Z,97123.13
2023-01-07T04:56:54.833Z,97129.28
2023-01-07T04:59:21.425Z,97122.28
2023-01-07T05:01:48.200Z,97117.94
2023-01-07T05:04:14.885Z,97116.94
2023-01-07T05:06:42.212Z,97116.84
2023-01-07T05:09:11.540Z,97114.47
2023-01-07T05:11:38.300Z,97108.56
2023-01-07T05:14:04.946Z,97111.84
2023-01-07T05:16:33.617Z,97105.19
2023-01-07T05:19:04.650Z,97106.34
2023-01-07T05:21:35.808Z,97105.69
2023-01-07T05:24:02.507Z,97102.03
2023-01-07T05:26:29.132Z,97101.94
2023-01-07T05:28:55.868Z,97094.16
2023-01-07T05:31:22.558Z,97091.28
2023-01-07T05:33:49.212Z,97098.25
2023-01-07T05:36:15.832Z,97091.13
2023-01-07T05:38:42.971Z,97089.44
2023-01-07T05:41:10.630Z,97085.78
2023-01-07T05:43:37.313Z,97085.78
2023-01-07T05:46:04.042Z,97076.22
2023-01-07T05:48:31.005Z,97087.28
2023-01-07T05:50:57.702Z,97078.75
2023-01-07T05:53:24.456Z,97082.31
2023-01-07T05:55:59.073Z,97083.16
2023-01-07T05:58:26.262Z,97083.41
2023-01-07T06:00:53.349Z,97074.44
2023-01-07T06:03:21.230Z,97082.13
2023-01-07T06:05:48.367Z,97078.84
2023-01-07T06:08:15.132Z,97073.41
2023-01-07T06:10:42.539Z,97078.09
2023-01-07T06:13:09.137Z,97066.47
2023-01-07T06:15:35.819Z,97070.63
2023-01-07T06:18:02.477Z,97059.53
2023-01-07T06:20:34.401Z,97064.03
2023-01-07T06:23:04.394Z,97070.22
2023-01-07T06:25:30.988Z,97060.66
2023-01-07T06:27:58.418Z,97068.91
2023-01-07T06:30:25.126Z,97048.28
2023-01-07T06:32:51.892Z,97048.28
2023-01-07T06:35:18.597Z,97044.91
2023-01-07T06:37:45.275Z,97037.19
2023-01-07T06:40:12.872Z,97046.75
2023-01-07T06:42:39.534Z,97046.00
2023-01-07T06:45:06.575Z,97038.97
2023-01-07T06:47:33.176Z,97038.13
2023-01-07T06:49:59.713Z,97038.97
2023-01-07T06:52:26.275Z,97016.88
2023-01-07T06:54:52.904Z,97033.81
2023-01-07T06:57:19.490Z,97019.94
2023-01-07T06:59:46.054Z,97014.69
2023-01-07T07:02:22.033Z,97026.03
2023-01-07T07:04:48.814Z,97013.56
2023-01-07T07:07:15.769Z,97013.47
2023-01-07T07:09:42.326Z,97009.44
2023-01-07T07:12:09.305Z,97012.91
2023-01-07T07:14:36.377Z,97010.09
2023-01-07T07:17:02.994Z,97001.47
2023-01-07T07:19:29.567Z,97006.63
2023-01-07T07:21:56.863Z,97010.00
2023-01-07T07:24:23.730Z,97005.59
2023-01-07T07:26:50.673Z,97009.25
2023-01-07T07:29:17.295Z,96996.88
2023-01-07T07:31:43.966Z,97004.75
2023-01-07T07:34:11.133Z,96991.84
2023-01-07T07:36:37.754Z,96990.69
2023-01-07T07:39:04.875Z,96998.56
2023-01-07T07:41:31.605Z,96992.41
2023-01-07T07:43:59.949Z,96994.09
2023-01-07T07:46:26.548Z,96993.25
2023-01-07T07:48:53.171Z,96989.50
2023-01-07T07:51:19.733Z,96990.34
2023-01-07T07:53:46.282Z,96988.84
2023-01-07T07:56:12.879Z,96986.22
2023-01-07T07:58:39.408Z,96984.06
2023-01-07T08:01:06.213Z,96979.84
2023-01-07T08:03:32.843Z,96981.28
2023-01-07T08:05:59.743Z,96980.25
2023-01-07T08:08:26.335Z,96976.78
2023-01-07T08:10:55.237Z,96980.16
2023-01-07T08:13:22.286Z,96972.28
2023-01-07T08:15:48.894Z,96965.25
2023-01-07T08:18:15.596Z,96969.75
2023-01-07T08:20:42.224Z,96961.88
2023-01-07T08:23:09.277Z,96957.38
2023-01-07T08:25:36.067Z,96960.78
2023-01-07T08:28:03.153Z,96955.53
2023-01-07T08:30:30.809Z,96953.44
2023-01-07T08:32:57.845Z,96943.53
2023-01-07T08:35:24.528Z,96947.84
2023-01-07T08:37:51.127Z,96936.38
2023-01-07T08:40:17.785Z,96939.50
2023-01-07T08:42:44.366Z,96936.97
2023-01-07T08:45:11.546Z,96938.44
2023-01-07T08:47:38.449Z,96941.94
2023-01-07T08:50:05.379Z,96936.47
2023-01-07T08:52:31.975Z,96931.06
2023-01-07T08:54:58.516Z,96928.31
2023-01-07T08:57:25.115Z,96917.81
2023-01-07T08:59:51.755Z,96927.38
2023-01-07T09:02:19.441Z,96916.97
2023-01-07T09:04:46.122Z,96914.16
2023-01-07T09:07:12.800Z,96909.94
2023-01-07T09:09:39.439Z,96897.56
2023-01-07T09:12:07.471Z,96900.81
2023-01-07T09:14:34.921Z,96899.03
2023-01-07T09:17:01.543Z,96908.31
2023-01-07T09:19:28.196Z,96892.75
2023-01-07T09:21:54.860Z,96902.13
2023-01-07T09:24:21.395Z,96897.03
2023-01-07T09:26:48.037Z,96895.72
2023-01-07T09:29:14.657Z,96894.38
2023-01-07T09:31:41.285Z,96888.41
2023-01-07T09:34:07.973Z,96894.66
2023-01-07T09:36:34.592Z,96891.19
2023-01-07T09:39:01.363Z,96885.34
2023-01-07T09:41:40.137Z,96887.91
2023-01-07T09:44:15.405Z,96888.66
2023-01-07T09:46:43.735Z,96875.50
2023-01-07T09:49:18.231Z,96870.69
2023-01-07T09:51:59.477Z,96866.41
2023-01-07T09:54:29.405Z,96872.84
2023-01-07T09:56:56.194Z,96875.22
2023-01-07T09:59:22.800Z,96881.78
2023-01-07T10:02:04.648Z,96870.72
2023-01-07T10:04:38.121Z,96866.19
2023-01-07T10:07:25.777Z,96858.63
2023-01-07T10:10:24.614Z,96851.47
2023-01-07T10:12:58.617Z,96852.50
2023-01-07T10:15:49.916Z,96853.66
2023-01-07T10:18:43.016Z,96851.66
2023-01-07T10:21:25.470Z,96842.19
2023-01-07T10:24:25.170Z,96846.59
2023-01-07T10:26:56.558Z,96837.34
2023-01-07T10:29:31.579Z,96845.28
2023-01-07T10:32:03.663Z,96841.69
2023-01-07T10:34:38.606Z,96834.72
2023-01-07T10:37:16.533Z,96832.44
2023-01-07T10:40:25.587Z,96824.84
2023-01-07T10:43:15.347Z,96817.34
2023-01-07T10:46:29.909Z,96813.13
2023-01-07T10:49:04.998Z,96807.13
2023-01-07T10:51:57.943Z,96799.19
2023-01-07T10:54:43.404Z,96793.94
2023-01-07T10:57:15.927Z,96788.56
2023-01-07T10:59:53.838Z,96774.44
2023-01-07T11:02:23.057Z,96774.66
2023-01-07T11:04:49.870Z,96771.84
2023-01-07T11:07:48.878Z,96771.84
2023-01-07T11:10:18.988Z,96756.44
2023-01-07T11:12:54.455Z,96755.78
2023-01-07T11:15:32.391Z,96761.06
2023-01-07T11:18:03.964Z,96759.63
2023-01-07T11:20:46.816Z,96740.66
2023-01-07T11:23:22.107Z,96737.50
2023-01-07T11:25:49.297Z,96730.25
2023-01-07T11:28:21.993Z,96733.53
2023-01-07T11:31:09.006Z,96727.53
2023-01-07T11:34:01.558Z,96729.94
2023-01-07T11:36:48.543Z,96721.63
2023-01-07T11:39:26.841Z,96715.53
2023-01-07T11:41:58.370Z,96708.81
2023-01-07T11:44:25.900Z,96703.66
2023-01-07T11:46:53.586Z,96701.22
2023-01-07T11:49:24.019Z,96694.47
2023-01-07T11:51:51.114Z,96695.53
2023-01-07T11:54:22.017Z,96682.69
2023-01-07T11:56:48.898Z,96683.94
2023-01-07T11:59:26.281Z,96672.50
2023-01-07T12:01:55.198Z,96670.66
2023-01-07T12:04:30.806Z,96670.53
2023-01-07T12:07:04.727Z,96666.22
2023-01-07T12:09:31.719Z,96665.88
2023-01-07T12:12:06.142Z,96658.63
2023-01-07T12:14:37.362Z,96644.97
2023-01-07T12:17:15.352Z,96650.06
2023-01-07T12:20:01.639Z,96635.13
2023-01-07T12:23:02.106Z,96633.94
2023-01-07T12:25:45.567Z,96633.81
2023-01-07T12:28:18.564Z,96624.94
2023-01-07T12:31:00.195Z,96631.34
2023-01-07T12:34:01.200Z,96624.50
2023-01-07T12:36:35.886Z,96625.97
2023-01-07T12:39:08.601Z,96619.22
2023-01-07T12:41:43.536Z,96612.41
2023-01-07T12:44:22.685Z,96607.66
2023-01-07T12:47:31.794Z,96590.94
2023-01-07T12:50:00.662Z,96598.19
2023-01-07T12:52:41.269Z,96591.69
2023-01-07T12:55:34.680Z,96597.56
2023-01-07T12:58:10.650Z,96587.66
2023-01-07T13:01:02.311Z,96596.84
2023-01-07T13:03:34.702Z,96592.63
2023-01-07T13:06:04.235Z,96590.94
2023-01-07T13:08:37.565Z,96588.31
2023-01-07T13:11:15.005Z,96578.31
2023-01-07T13:13:47.375Z,96588.50
2023-01-07T13:16:14.147Z,96585.16
2023-01-07T13:18:40.869Z,96580.00
2023-01-07T13:21:12.666Z,96575.16
2023-01-07T13:23:57.371Z,96574.94
2023-01-07T13:26:51.362Z,96568.50
2023-01-07T13:29:58.718Z,96567.22
2023-01-07T13:32:57.441Z,96566.66
2023-01-07T13:35:33.307Z,96567.06
2023-01-07T13:38:14.351Z,96567.91
2023-01-07T13:40:40.877Z,96562.97
2023-01-07T13:43:18.818Z,96563.59
2023-01-07T13:45:55.023Z,96557.69
2023-01-07T13:48:25.914Z,96547.19
2023-01-07T13:51:01.468Z,96540.88
2023-01-07T13:53:46.941Z,96550.94
2023-01-07T13:56:16.390Z,96546.06
2023-01-07T13:58:56.259Z,96533.19
2023-01-07T14:01:23.989Z,96541.19
2023-01-07T14:03:53.583Z,96536.22
2023-01-07T14:06:20.333Z,96540.03
2023-01-07T14:08:50.758Z,96537.28
2023-01-07T14:11:20.049Z,96528.97
2023-01-07T14:14:05.234Z,96530.72
2023-01-07T14:16:51.946Z,96523.47
2023-01-07T14:19:34.524Z,96514.50
2023-01-07T14:22:16.106Z,96511.41
2023-01-07T14:25:02.246Z,96516.56
2023-01-07T14:27:41.064Z,96513.88
2023-01-07T14:30:28.403Z,96518.44
2023-01-07T14:33:06.525Z,96511.22
2023-01-07T14:35:38.382Z,96511.47
2023-01-07T14:38:29.669Z,96512.75
2023-01-07T14:41:10.593Z,96523.88
2023-01-07T14:43:46.089Z,96512.75
2023-01-07T14:46:24.747Z,96506.66
2023-01-07T14:49:03.342Z,96507.94
2023-01-07T14:51:57.453Z,96508.91
2023-01-07T14:54:49.693Z,96517.09
2023-01-07T14:57:46.668Z,96515.31
2023-01-07T15:00:34.770Z,96510.78
2023-01-07T15:03:22.529Z,96524.63
2023-01-07T15:06:32.908Z,96518.97
2023-01-07T15:09:23.437Z,96519.81
2023-01-07T15:12:10.960Z,96522.94
2023-01-07T15:15:04.778Z,96518.25
2023-01-07T15:17:32.234Z,96511.31
2023-01-07T15:20:00.415Z,96516.00
2023-01-07T15:22:33.712Z,96517.69
2023-01-07T15:25:27.695Z,96511.44
2023-01-07T15:28:20.903Z,96509.63
2023-01-07T15:30:57.102Z,96507.72
2023-01-07T15:33:48.381Z,96497.53
2023-01-07T15:36:16.049Z,96499.72
2023-01-07T15:38:50.996Z,96488.41
2023-01-07T15:41:28.812Z,96493.97
2023-01-07T15:43:56.616Z,96491.97
2023-01-07T15:46:25.755Z,96491.75
2023-01-07T15:49:14.610Z,96483.06
2023-01-07T15:51:45.058Z,96487.44
2023-01-07T15:54:37.024Z,96473.25
2023-01-07T15:57:11.372Z,96481.19
2023-01-07T15:59:43.400Z,96470.91
2023-01-07T16:02:24.738Z,96463.22
2023-01-07T16:04:57.567Z,96462.38
2023-01-07T16:07:29.007Z,96461.66
2023-01-07T16:09:57.285Z,96458.50
2023-01-07T16:12:34.185Z,96452.59
2023-01-07T16:15:04.596Z,96447.34
2023-01-07T16:17:31.567Z,96448.09
2023-01-07T16:20:21.926Z,96442.22
2023-01-07T16:22:49.996Z,96442.22
2023-01-07T16:25:23.431Z,96442.22
2023-01-07T16:27:50.978Z,96430.28
2023-01-07T16:30:18.196Z,96435.84
2023-01-07T16:32:45.839Z,96431.56
2023-01-07T16:35:20.377Z,96431.22
2023-01-07T16:37:48.922Z,96413.63
2023-01-07T16:40:24.501Z,96413.31
2023-01-07T16:42:51.195Z,96412.03
2023-01-07T16:45:34.896Z,96408.78
2023-01-07T16:48:19.263Z,96420.66
2023-01-07T16:50:46.304Z,96416.03
2023-01-07T16:53:31.117Z,96420.66
2023-01-07T16:56:13.028Z,96410.91
2023-01-07T16:58:53.326Z,96415.41
2023-01-07T17:01:30.565Z,96416.75
2023-01-07T17:04:07.387Z,96419.91
2023-01-07T17:06:41.174Z,96407.84
2023-01-07T17:09:20.123Z,96409.50
2023-01-07T17:11:48.373Z,96406.25
2023-01-07T17:14:33.233Z,96415.72
2023-01-07T17:17:05.045Z,96405.22
2023-01-07T17:19:49.934Z,96397.34
2023-01-07T17:22:39.601Z,96394.72
2023-01-07T17:25:28.150Z,96401.53
2023-01-07T17:27:58.139Z,96393.66
2023-01-07T17:30:35.482Z,96390.72
2023-01-07T17:33:02.602Z,96391.56
2023-01-07T17:35:29.177Z,96405.84
2023-01-07T17:37:56.883Z,96393.16
2023-01-07T17:40:23.646Z,96393.34
2023-01-07T17:43:09.496Z,96378.16
2023-01-07T17:45:36.176Z,96382.66
2023-01-07T17:48:02.792Z,96376.47
2023-01-07T17:50:36.260Z,96380.88
2023-01-07T17:53:03.746Z,96377.41
2023-01-07T17:55:32.181Z,96376.16
2023-01-07T17:57:58.829Z,96375.84
2023-01-07T18:00:28.044Z,96371.22
2023-01-07T18:02:54.708Z,96385.19
2023-01-07T18:05:24.219Z,96371.03
2023-01-07T18:07:52.272Z,96371.22
2023-01-07T18:10:24.198Z,96371.75
2023-01-07T18:12:50.765Z,96370.69
2023-01-07T18:15:20.986Z,96372.06
2023-01-07T18:17:47.825Z,96366.50
2023-01-07T18:20:15.674Z,96370.38
2023-01-07T18:22:43.773Z,96371.03
2023-01-07T18:25:21.778Z,96362.19
2023-01-07T18:27:52.615Z,96364.50
2023-01-07T18:30:21.580Z,96365.84
2023-01-07T18:32:49.564Z,96358.72
2023-01-07T18:35:19.028Z,96357.16
2023-01-07T18:37:49.882Z,96361.03
2023-01-07T18:40:17.444Z,96358.06
2023-01-07T18:42:44.018Z,96352.69
2023-01-07T18:45:11.088Z,96346.72
2023-01-07T18:47:38.000Z,96344.50
2023-01-07T18:50:05.432Z,96334.00
2023-01-07T18:52:33.438Z,96330.44
2023-01-07T18:55:00.092Z,96328.75
2023-01-07T18:57:26.649Z,96329.19
2023-01-07T18:59:53.340Z,96328.75
2023-01-07T19:02:21.586Z,96332.94
2023-01-07T19:04:49.385Z,96328.13
2023-01-07T19:07:17.666Z,96327.41
2023-01-07T19:09:44.996Z,96329.00
2023-01-07T19:12:12.225Z,96336.56
2023-01-07T19:14:40.423Z,96341.09
2023-01-07T19:17:08.064Z,96330.47
2023-01-07T19:19:47.384Z,96329.22
2023-01-07T19:22:15.849Z,96326.16
2023-01-07T19:24:42.449Z,96328.03
2023-01-07T19:27:09.000Z,96342.72
2023-01-07T19:29:35.560Z,96350.31
2023-01-07T19:32:02.239Z,96348.19
2023-01-07T19:34:28.942Z,96358.25
2023-01-07T19:36:55.513Z,96368.63
2023-01-07T19:39:23.686Z,96357.09
2023-01-07T19:41:50.826Z,96358.06
2023-01-07T19:44:17.644Z,96364.03
2023-01-07T19:46:44.303Z,96361.41
2023-01-07T19:49:12.949Z,96362.72
2023-01-07T19:51:40.780Z,96360.97
2023-01-07T19:54:09.547Z,96355.59
2023-01-07T19:56:36.722Z,96367.16
2023-01-07T19:59:03.660Z,96360.09
2023-01-07T20:01:30.430Z,96344.69
2023-01-07T20:03:58.336Z,96337.78
2023-01-07T20:06:27.472Z,96330.59
2023-01-07T20:08:58.192Z,96336.28
2023-01-07T20:11:25.355Z,96344.03
2023-01-07T20:13:52.170Z,96337.00
2023-01-07T20:16:22.261Z,96345.72
2023-01-07T20:18:52.140Z,96348.09
2023-01-07T20:21:25.267Z,96343.09
2023-01-07T20:23:52.683Z,96349.84
2023-01-07T20:26:25.990Z,96341.13
2023-01-07T20:28:52.666Z,96348.16
2023-01-07T20:31:21.680Z,96351.31
2023-01-07T20:33:50.439Z,96346.88
2023-01-07T20:36:20.327Z,96355.78
2023-01-07T20:38:47.561Z,96359.03
2023-01-07T20:41:17.157Z,96355.34
2023-01-07T20:43:43.749Z,96358.41
2023-01-07T20:46:10.997Z,96351.97
2023-01-07T20:48:37.971Z,96343.50
2023-01-07T20:51:09.141Z,96342.22
2023-01-07T20:53:39.643Z,96357.97
2023-01-07T20:56:06.776Z,96362.06
2023-01-07T20:58:36.514Z,96361.81
2023-01-07T21:01:08.590Z,96361.81
2023-01-07T21:03:36.328Z,96358.34
2023-01-07T21:06:03.365Z,96349.47
2023-01-07T21:08:30.021Z,96341.88
2023-01-07T21:10:56.571Z,96338.63
2023-01-07T21:13:23.523Z,96325.81
2023-01-07T21:15:51.418Z,96324.97
2023-01-07T21:18:18.252Z,96317.94
2023-01-07T21:20:45.353Z,96322.47
2023-01-07T21:23:12.123Z,96318.06
2023-01-07T21:25:38.738Z,96317.09
2023-01-07T21:28:06.633Z,96306.06
2023-01-07T21:30:33.954Z,96310.59
2023-01-07T21:33:00.644Z,96306.06
2023-01-07T21:35:27.286Z,96308.34
2023-01-07T21:37:54.792Z,96311.16
2023-01-07T21:40:22.591Z,96299.94
2023-01-07T21:42:49.630Z,96306.44
2023-01-07T21:45:17.310Z,96300.38
2023-01-07T21:47:44.048Z,96309.06
2023-01-07T21:50:10.760Z,96314.31
2023-01-07T21:52:37.399Z,96305.53
2023-01-07T21:55:04.709Z,96300.38
2023-01-07T21:57:31.448Z,96309.19
2023-01-07T21:59:58.038Z,96314.13
2023-01-07T22:02:24.633Z,96306.13
2023-01-07T22:04:51.339Z,96317.72
2023-01-07T22:07:19.239Z,96315.47
2023-01-07T22:09:46.412Z,96310.97
2023-01-07T22:12:14.376Z,96308.53
2023-01-07T22:14:41.403Z,96305.81
2023-01-07T22:17:08.072Z,96301.41
2023-01-07T22:19:34.923Z,96306.13
2023-01-07T22:22:01.633Z,96300.66
2023-01-07T22:24:28.456Z,96297.31
2023-01-07T22:26:55.279Z,96306.44
2023-01-07T22:29:22.037Z,96305.97
2023-01-07T22:31:51.029Z,96306.91
2023-01-07T22:34:17.758Z,96308.06
2023-01-07T22:36:48.087Z,96308.47
2023-01-07T22:39:24.102Z,96307.34
2023-01-07T22:41:56.141Z,96304.41
2023-01-07T22:44:47.206Z,96302.75
2023-01-07T22:47:17.183Z,96294.03
2023-01-07T22:49:44.298Z,96286.69
2023-01-07T22:52:11.771Z,96280.63
2023-01-07T22:54:39.610Z,96288.25
2023-01-07T22:57:08.465Z,96289.22
2023-01-07T22:59:35.773Z,96286.69
2023-01-07T23:02:02.629Z,96281.56
2023-01-07T23:04:29.624Z,96283.34
2023-01-07T23:06:56.278Z,96282.09
2023-01-07T23:09:22.915Z,96275.25
2023-01-07T23:11:50.459Z,96261.16
2023-01-07T23:14:19.428Z,96244.47
2023-01-07T23:16:46.496Z,96239.13
2023-01-07T23:19:14.127Z,96238.31
2023-01-07T23:21:43.317Z,96236.41
2023-01-07T23:24:11.305Z,96239.50
2023-01-07T23:26:38.717Z,96245.28
2023-01-07T23:29:05.828Z,96241.22
2023-01-07T23:31:34.650Z,96240.63
2023-01-07T23:34:01.769Z,96233.09
2023-01-07T23:36:28.611Z,96222.38
2023-01-07T23:38:55.299Z,96216.16
2023-01-07T23:41:21.951Z,96220.47
2023-01-07T23:43:49.605Z,96218.78
2023-01-07T23:46:16.441Z,96216.56
2023-01-07T23:48:43.094Z,96209.66
2023-01-07T23:51:12.649Z,96201.53
2023-01-07T23:53:39.385Z,96194.50
2023-01-07T23:56:06.935Z,96190.81
2023-01-07T23:58:34.286Z,96179.25
